createdAt,value
2019-05-23T00:00:14.036Z,13.05
2019-05-23T00:01:14.028Z,12.96
2019-05-23T00:03:06.947Z,12.93
2019-05-23T00:04:06.940Z,12.97
2019-05-23T00:05:59.858Z,12.92
2019-05-23T00:06:59.867Z,12.92
2019-05-23T00:08:53.264Z,12.90
2019-05-23T00:09:53.271Z,12.93
2019-05-23T00:11:46.679Z,12.85
2019-05-23T00:12:46.688Z,12.83
2019-05-23T00:14:40.087Z,12.78
2019-05-23T00:15:40.103Z,12.77
2019-05-23T00:17:33.503Z,12.74
2019-05-23T00:18:33.509Z,12.75
2019-05-23T00:20:26.415Z,12.68
2019-05-23T00:21:26.425Z,12.71
2019-05-23T00:23:19.337Z,12.67
2019-05-23T00:24:19.347Z,12.60
2019-05-23T00:26:12.749Z,12.60
2019-05-23T00:27:12.779Z,12.57
2019-05-23T00:29:10.645Z,12.49
2019-05-23T00:30:06.167Z,12.41
2019-05-23T00:31:59.079Z,12.49
2019-05-23T00:32:59.082Z,12.46
2019-05-23T00:34:51.994Z,12.45
2019-05-23T00:35:52.002Z,12.38
2019-05-23T00:37:44.920Z,12.32
2019-05-23T00:38:44.921Z,12.35
2019-05-23T00:40:37.836Z,12.29
2019-05-23T00:41:37.848Z,12.17
2019-05-23T00:43:31.245Z,12.21
2019-05-23T00:44:31.271Z,12.14
2019-05-23T00:46:24.159Z,12.23
2019-05-23T00:47:24.166Z,12.17
2019-05-23T00:49:17.072Z,12.16
2019-05-23T00:50:17.081Z,12.12
2019-05-23T00:52:10.488Z,12.16
2019-05-23T00:53:10.492Z,12.13
2019-05-23T00:55:03.895Z,12.10
2019-05-23T00:56:03.904Z,11.99
2019-05-23T00:57:57.313Z,12.05
2019-05-23T00:58:57.315Z,12.01
2019-05-23T01:00:50.735Z,11.98
2019-05-23T01:01:50.728Z,11.96
2019-05-23T01:03:43.649Z,11.90
2019-05-23T01:04:43.643Z,11.88
2019-05-23T01:06:36.547Z,11.91
2019-05-23T01:07:36.556Z,11.86
2019-05-23T01:09:29.466Z,11.73
2019-05-23T01:10:29.472Z,11.82
2019-05-23T01:12:22.390Z,11.76
2019-05-23T01:13:22.391Z,11.72
2019-05-23T01:15:15.792Z,11.70
2019-05-23T01:16:15.799Z,11.75
2019-05-23T01:18:08.713Z,11.67
2019-05-23T01:19:08.716Z,11.60
2019-05-23T01:21:01.624Z,11.58
2019-05-23T01:22:01.629Z,11.61
2019-05-23T01:23:54.542Z,11.49
2019-05-23T01:24:54.547Z,11.44
2019-05-23T01:26:47.456Z,11.42
2019-05-23T01:27:47.461Z,11.42
2019-05-23T01:29:40.373Z,11.49
2019-05-23T01:30:40.385Z,11.46
2019-05-23T01:32:33.291Z,11.43
2019-05-23T01:33:33.290Z,11.52
2019-05-23T01:35:26.692Z,11.44
2019-05-23T01:36:26.701Z,11.51
2019-05-23T01:38:19.614Z,11.39
2019-05-23T01:39:19.624Z,11.39
2019-05-23T01:41:13.022Z,11.39
2019-05-23T01:42:13.030Z,11.28
2019-05-23T01:44:05.947Z,11.29
2019-05-23T01:45:05.942Z,11.25
2019-05-23T01:46:59.346Z,11.27
2019-05-23T01:47:59.354Z,11.22
2019-05-23T01:49:52.261Z,11.15
2019-05-23T01:50:52.307Z,11.19
2019-05-23T01:52:45.672Z,11.17
2019-05-23T01:53:45.680Z,11.18
2019-05-23T01:55:39.081Z,11.09
2019-05-23T01:56:39.150Z,11.04
2019-05-23T01:58:31.998Z,11.02
2019-05-23T01:59:32.001Z,11.03
2019-05-23T02:01:25.402Z,10.97
2019-05-23T02:02:25.415Z,10.96
2019-05-23T02:04:18.330Z,10.94
2019-05-23T02:05:18.326Z,10.96
2019-05-23T02:07:11.724Z,10.89
2019-05-23T02:08:11.853Z,10.91
2019-05-23T02:10:04.648Z,10.86
2019-05-23T02:11:04.648Z,10.94
2019-05-23T02:12:57.551Z,10.91
2019-05-23T02:13:57.561Z,10.82
2019-05-23T02:15:50.469Z,10.89
2019-05-23T02:16:50.476Z,10.79
2019-05-23T02:18:43.382Z,10.79
2019-05-23T02:19:43.384Z,10.74
2019-05-23T02:21:36.301Z,10.71
2019-05-23T02:22:36.336Z,10.78
2019-05-23T02:24:29.209Z,10.59
2019-05-23T02:25:29.212Z,10.61
2019-05-23T02:27:22.133Z,10.64
2019-05-23T02:28:22.129Z,10.63
2019-05-23T02:30:32.931Z,10.61
2019-05-23T02:31:15.540Z,10.67
2019-05-23T02:33:08.938Z,10.67
2019-05-23T02:34:08.953Z,10.56
2019-05-23T02:36:02.350Z,10.67
2019-05-23T02:37:02.355Z,10.56
2019-05-23T02:38:55.781Z,10.56
2019-05-23T02:39:55.772Z,10.48
2019-05-23T02:41:48.665Z,10.45
2019-05-23T02:42:48.676Z,10.41
2019-05-23T02:44:42.093Z,10.42
2019-05-23T02:45:42.085Z,10.42
2019-05-23T02:47:35.481Z,10.34
2019-05-23T02:48:35.506Z,10.40
2019-05-23T02:50:28.896Z,10.38
2019-05-23T02:51:28.905Z,10.36
2019-05-23T02:53:21.802Z,10.25
2019-05-23T02:54:21.809Z,10.29
2019-05-23T02:56:14.728Z,10.27
2019-05-23T02:57:14.720Z,10.27
2019-05-23T02:59:08.121Z,10.30
2019-05-23T03:00:08.135Z,10.27
2019-05-23T03:02:01.043Z,10.33
2019-05-23T03:03:01.037Z,10.27
2019-05-23T03:04:53.964Z,10.30
2019-05-23T03:05:53.960Z,10.32
2019-05-23T03:07:47.360Z,10.22
2019-05-23T03:08:47.373Z,10.22
2019-05-23T03:10:40.772Z,10.12
2019-05-23T03:11:40.773Z,10.09
2019-05-23T03:13:33.687Z,10.01
2019-05-23T03:14:33.686Z,10.12
2019-05-23T03:16:27.089Z,10.01
2019-05-23T03:17:27.100Z,9.93
2019-05-23T03:19:19.996Z,9.94
2019-05-23T03:20:20.007Z,9.96
2019-05-23T03:22:13.406Z,9.91
2019-05-23T03:23:13.412Z,10.01
2019-05-23T03:25:06.815Z,9.90
2019-05-23T03:26:06.822Z,10.05
2019-05-23T03:27:59.725Z,10.01
2019-05-23T03:28:59.729Z,9.99
2019-05-23T03:31:53.233Z,10.02
2019-05-23T03:33:46.042Z,10.09
2019-05-23T03:34:46.053Z,10.02
2019-05-23T03:36:39.469Z,10.04
2019-05-23T03:37:39.471Z,10.01
2019-05-23T03:39:32.873Z,10.07
2019-05-23T03:40:32.880Z,9.91
2019-05-23T03:42:25.793Z,9.87
2019-05-23T03:43:25.797Z,9.90
2019-05-23T03:45:18.703Z,9.86
2019-05-23T03:46:18.713Z,9.93
2019-05-23T03:48:12.125Z,10.01
2019-05-23T03:49:12.129Z,9.96
2019-05-23T03:51:05.038Z,10.05
2019-05-23T03:52:05.043Z,10.14
2019-05-23T03:53:57.967Z,10.30
2019-05-23T03:54:57.967Z,10.36
2019-05-23T03:56:50.879Z,10.55
2019-05-23T03:57:50.882Z,10.55
2019-05-23T03:59:43.787Z,10.78
2019-05-23T04:00:43.796Z,11.02
2019-05-23T04:02:36.732Z,11.21
2019-05-23T04:03:39.893Z,11.43
2019-05-23T04:05:29.652Z,11.86
2019-05-23T04:06:29.648Z,12.14
2019-05-23T04:08:22.552Z,12.47
2019-05-23T04:09:22.560Z,12.57
2019-05-23T04:11:15.472Z,12.74
2019-05-23T04:12:15.476Z,12.83
2019-05-23T04:14:08.382Z,13.01
2019-05-23T04:15:08.390Z,13.19
2019-05-23T04:17:01.304Z,13.55
2019-05-23T04:18:01.306Z,13.64
2019-05-23T04:19:54.211Z,14.06
2019-05-23T04:20:54.232Z,14.12
2019-05-23T04:22:47.141Z,14.55
2019-05-23T04:23:47.142Z,14.77
2019-05-23T04:25:40.545Z,15.34
2019-05-23T04:26:40.558Z,15.38
2019-05-23T04:28:33.472Z,15.67
2019-05-23T04:29:33.471Z,15.84
2019-05-23T04:31:26.386Z,16.07
2019-05-23T04:32:26.393Z,16.11
2019-05-23T04:34:19.312Z,16.00
2019-05-23T04:35:19.321Z,16.14
2019-05-23T04:37:12.231Z,16.24
2019-05-23T04:38:12.240Z,16.17
2019-05-23T04:40:05.154Z,16.11
2019-05-23T04:41:05.162Z,16.23
2019-05-23T04:42:58.085Z,16.31
2019-05-23T04:43:58.083Z,16.49
2019-05-23T04:45:50.994Z,16.53
2019-05-23T04:46:51.003Z,16.68
2019-05-23T04:48:43.914Z,17.19
2019-05-23T04:49:43.926Z,17.48
2019-05-23T04:51:36.843Z,17.93
2019-05-23T04:52:36.853Z,17.99
2019-05-23T04:54:29.768Z,17.74
2019-05-23T04:55:29.781Z,17.63
2019-05-23T04:57:22.697Z,17.23
2019-05-23T04:58:22.710Z,17.15
2019-05-23T05:00:15.667Z,17.12
2019-05-23T05:01:15.630Z,17.22
2019-05-23T05:03:08.566Z,17.43
2019-05-23T05:04:08.565Z,17.28
2019-05-23T05:06:01.476Z,17.12
2019-05-23T05:07:01.519Z,17.11
2019-05-23T05:08:54.396Z,17.03
2019-05-23T05:09:54.419Z,17.01
2019-05-23T05:11:47.342Z,16.76
2019-05-23T05:12:47.338Z,16.48
2019-05-23T05:14:40.253Z,16.34
2019-05-23T05:15:40.272Z,16.35
2019-05-23T05:17:33.184Z,16.20
2019-05-23T05:18:33.193Z,16.11
2019-05-23T05:20:26.116Z,16.02
2019-05-23T05:21:26.120Z,16.07
2019-05-23T05:23:19.042Z,16.21
2019-05-23T05:24:19.049Z,16.45
2019-05-23T05:26:11.980Z,16.63
2019-05-23T05:27:11.982Z,16.86
2019-05-23T05:29:04.898Z,17.00
2019-05-23T05:30:04.917Z,17.16
2019-05-23T05:31:57.830Z,17.18
2019-05-23T05:32:57.842Z,17.14
2019-05-23T05:34:50.755Z,17.26
2019-05-23T05:35:50.769Z,17.31
2019-05-23T05:37:43.692Z,16.94
2019-05-23T05:38:43.701Z,17.11
2019-05-23T05:40:36.623Z,17.34
2019-05-23T05:41:36.646Z,17.52
2019-05-23T05:43:29.589Z,17.55
2019-05-23T05:44:29.570Z,17.58
2019-05-23T05:46:22.491Z,17.78
2019-05-23T05:47:22.499Z,17.81
2019-05-23T05:49:15.450Z,18.26
2019-05-23T05:50:15.442Z,18.36
2019-05-23T05:52:08.854Z,18.58
2019-05-23T05:53:08.871Z,18.57
2019-05-23T05:55:01.789Z,18.63
2019-05-23T05:56:01.830Z,18.80
2019-05-23T05:57:54.732Z,18.99
2019-05-23T05:58:54.743Z,19.25
2019-05-23T06:00:47.675Z,19.51
2019-05-23T06:01:47.680Z,19.62
2019-05-23T06:03:40.607Z,19.66
2019-05-23T06:04:40.626Z,19.78
2019-05-23T06:06:33.543Z,19.69
2019-05-23T06:07:33.559Z,19.69
2019-05-23T06:09:26.980Z,19.91
2019-05-23T06:10:26.995Z,19.98
2019-05-23T06:12:19.924Z,19.99
2019-05-23T06:13:19.936Z,20.13
2019-05-23T06:15:13.374Z,20.48
2019-05-23T06:16:13.383Z,20.59
2019-05-23T06:18:06.361Z,20.89
2019-05-23T06:19:06.326Z,21.16
2019-05-23T06:20:59.251Z,21.19
2019-05-23T06:21:59.267Z,21.12
2019-05-23T06:23:52.199Z,21.09
2019-05-23T06:24:55.487Z,21.37
2019-05-23T06:26:45.633Z,21.42
2019-05-23T06:27:45.654Z,21.43
2019-05-23T06:29:38.589Z,21.46
2019-05-23T06:30:38.604Z,21.46
2019-05-23T06:32:31.537Z,21.56
2019-05-23T06:33:31.561Z,21.38
2019-05-23T06:35:24.480Z,21.58
2019-05-23T06:36:24.500Z,21.56
2019-05-23T06:38:17.930Z,21.53
2019-05-23T06:39:17.945Z,21.40
2019-05-23T06:41:10.877Z,21.24
2019-05-23T06:42:10.894Z,21.12
2019-05-23T06:44:03.832Z,21.14
2019-05-23T06:45:03.849Z,21.24
2019-05-23T06:46:56.775Z,21.13
2019-05-23T06:47:56.802Z,21.10
2019-05-23T06:49:49.732Z,21.14
2019-05-23T06:50:49.755Z,21.19
2019-05-23T06:52:42.680Z,21.13
2019-05-23T06:53:42.698Z,21.01
2019-05-23T06:55:35.623Z,21.19
2019-05-23T06:56:35.652Z,21.31
2019-05-23T06:58:28.608Z,21.38
2019-05-23T06:59:28.596Z,21.28
2019-05-23T07:01:21.521Z,21.04
2019-05-23T07:02:21.543Z,21.21
2019-05-23T07:04:14.479Z,21.35
2019-05-23T07:05:14.497Z,21.53
2019-05-23T07:07:07.422Z,21.28
2019-05-23T07:08:07.445Z,21.28
2019-05-23T07:10:01.567Z,21.40
2019-05-23T07:11:00.403Z,21.34
2019-05-23T07:12:53.331Z,21.27
2019-05-23T07:13:53.346Z,21.28
2019-05-23T07:15:46.282Z,21.27
2019-05-23T07:16:50.063Z,21.28
2019-05-23T07:18:39.232Z,21.25
2019-05-23T07:19:39.251Z,21.27
2019-05-23T07:21:32.222Z,21.31
2019-05-23T07:22:32.199Z,21.37
2019-05-23T07:24:25.134Z,21.34
2019-05-23T07:25:25.143Z,21.29
2019-05-23T07:27:18.072Z,20.74
2019-05-23T07:28:18.090Z,20.57
2019-05-23T07:30:11.062Z,20.61
2019-05-23T07:31:11.030Z,20.47
2019-05-23T07:33:03.958Z,20.48
2019-05-23T07:34:04.025Z,20.42
2019-05-23T07:35:56.909Z,20.48
2019-05-23T07:36:56.931Z,20.42
2019-05-23T07:38:49.841Z,20.52
2019-05-23T07:39:49.858Z,20.62
2019-05-23T07:41:42.777Z,20.57
2019-05-23T07:42:42.793Z,20.59
2019-05-23T07:44:47.913Z,20.38
2019-05-23T07:45:39.607Z,20.41
2019-05-23T07:47:28.649Z,20.11
2019-05-23T07:48:28.695Z,20.24
2019-05-23T07:50:21.595Z,20.16
2019-05-23T07:51:21.605Z,20.03
2019-05-23T07:53:14.530Z,20.16
2019-05-23T07:54:14.684Z,20.18
2019-05-23T07:56:07.471Z,19.99
2019-05-23T07:57:07.479Z,20.01
2019-05-23T07:59:00.402Z,20.18
2019-05-23T08:00:00.420Z,20.29
2019-05-23T08:01:53.343Z,20.50
2019-05-23T08:02:53.357Z,20.58
2019-05-23T08:04:46.335Z,20.70
2019-05-23T08:05:46.329Z,20.74
2019-05-23T08:07:39.219Z,20.79
2019-05-23T08:08:39.233Z,20.94
2019-05-23T08:10:34.124Z,21.07
2019-05-23T08:11:32.168Z,21.14
2019-05-23T08:13:25.097Z,21.16
2019-05-23T08:14:25.106Z,21.25
2019-05-23T08:16:18.033Z,21.44
2019-05-23T08:17:18.075Z,21.44
2019-05-23T08:19:10.979Z,21.56
2019-05-23T08:20:10.984Z,21.64
2019-05-23T08:22:03.909Z,21.52
2019-05-23T08:23:03.926Z,21.59
2019-05-23T08:24:56.851Z,21.64
2019-05-23T08:25:56.862Z,21.68
2019-05-23T08:27:49.810Z,21.92
2019-05-23T08:29:12.569Z,21.99
2019-05-23T08:30:42.726Z,22.22
2019-05-23T08:31:42.742Z,22.20
2019-05-23T08:33:35.662Z,22.18
2019-05-23T08:34:41.494Z,22.22
2019-05-23T08:36:28.603Z,22.22
2019-05-23T08:37:28.620Z,22.21
2019-05-23T08:39:21.561Z,22.25
2019-05-23T08:40:21.578Z,21.94
2019-05-23T08:42:14.502Z,21.99
2019-05-23T08:43:14.663Z,22.00
2019-05-23T08:45:07.440Z,21.68
2019-05-23T08:46:07.459Z,21.69
2019-05-23T08:48:00.892Z,21.88
2019-05-23T08:49:00.894Z,22.00
2019-05-23T08:50:53.817Z,22.02
2019-05-23T08:51:53.829Z,22.17
2019-05-23T08:53:46.758Z,22.18
2019-05-23T08:54:46.777Z,22.22
2019-05-23T08:56:39.723Z,22.09
2019-05-23T08:57:39.715Z,21.98
2019-05-23T08:59:32.639Z,22.10
2019-05-23T09:00:32.687Z,22.20
2019-05-23T09:02:25.580Z,22.18
2019-05-23T09:03:25.606Z,22.30
2019-05-23T09:05:18.517Z,22.55
2019-05-23T09:06:18.579Z,22.54
2019-05-23T09:08:11.455Z,22.58
2019-05-23T09:09:28.610Z,22.60
2019-05-23T09:11:04.410Z,22.58
2019-05-23T09:12:04.415Z,22.65
2019-05-23T09:13:57.338Z,22.43
2019-05-23T09:14:57.352Z,22.35
2019-05-23T09:16:50.288Z,22.35
2019-05-23T09:17:53.411Z,22.49
2019-05-23T09:19:43.715Z,22.46
2019-05-23T09:20:43.722Z,22.52
2019-05-23T09:22:36.653Z,22.49
2019-05-23T09:23:36.662Z,22.58
2019-05-23T09:25:29.589Z,22.67
2019-05-23T09:26:29.600Z,22.77
2019-05-23T09:28:22.526Z,22.83
2019-05-23T09:29:22.557Z,22.85
2019-05-23T09:31:15.967Z,22.95
2019-05-23T09:32:15.984Z,23.10
2019-05-23T09:34:08.902Z,22.85
2019-05-23T09:35:20.129Z,22.64
2019-05-23T09:37:01.845Z,22.47
2019-05-23T09:38:01.859Z,22.51
2019-05-23T09:39:54.775Z,22.57
2019-05-23T09:40:54.812Z,22.68
2019-05-23T09:42:47.736Z,22.95
2019-05-23T09:43:47.732Z,23.01
2019-05-23T09:45:40.667Z,23.27
2019-05-23T09:46:40.671Z,23.39
2019-05-23T09:48:33.594Z,23.50
2019-05-23T09:49:33.609Z,23.51
2019-05-23T09:51:26.539Z,23.57
2019-05-23T09:52:26.549Z,23.60
2019-05-23T09:54:19.495Z,23.43
2019-05-23T09:55:19.496Z,23.25
2019-05-23T09:57:12.421Z,23.23
2019-05-23T09:58:12.478Z,23.16
2019-05-23T10:00:05.365Z,23.25
2019-05-23T10:01:05.373Z,23.25
2019-05-23T10:02:58.314Z,23.35
2019-05-23T10:03:58.315Z,23.33
2019-05-23T10:05:51.889Z,23.57
2019-05-23T10:06:51.745Z,23.68
2019-05-23T10:08:44.667Z,23.55
2019-05-23T10:09:44.684Z,23.72
2019-05-23T10:11:37.634Z,23.69
2019-05-23T10:12:37.633Z,23.76
2019-05-23T10:14:30.551Z,23.95
2019-05-23T10:15:30.577Z,24.18
2019-05-23T10:17:23.554Z,24.52
2019-05-23T10:18:23.512Z,24.60
2019-05-23T10:20:16.450Z,24.65
2019-05-23T10:21:16.470Z,24.78
2019-05-23T10:23:09.400Z,24.73
2019-05-23T10:24:09.422Z,24.69
2019-05-23T10:26:02.343Z,24.88
2019-05-23T10:27:02.355Z,25.08
2019-05-23T10:28:55.779Z,24.99
2019-05-23T10:29:55.798Z,25.02
2019-05-23T10:31:48.731Z,25.08
2019-05-23T10:32:48.741Z,25.14
2019-05-23T10:34:41.717Z,25.20
2019-05-23T10:35:56.906Z,25.20
2019-05-23T10:37:34.623Z,24.84
2019-05-23T10:38:34.636Z,24.80
2019-05-23T10:40:27.564Z,24.62
2019-05-23T10:41:27.582Z,24.57
2019-05-23T10:43:20.544Z,24.39
2019-05-23T10:44:20.521Z,24.25
2019-05-23T10:46:13.453Z,24.34
2019-05-23T10:47:13.467Z,24.37
2019-05-23T10:49:06.397Z,24.46
2019-05-23T10:50:08.946Z,24.43
2019-05-23T10:51:59.343Z,24.40
2019-05-23T10:52:59.354Z,24.50
2019-05-23T10:54:52.280Z,24.60
2019-05-23T10:55:52.300Z,24.65
2019-05-23T10:57:45.233Z,24.83
2019-05-23T10:58:45.243Z,24.93
2019-05-23T11:00:38.169Z,24.93
2019-05-23T11:01:38.186Z,24.62
2019-05-23T11:03:31.123Z,24.64
2019-05-23T11:04:31.187Z,24.52
2019-05-23T11:06:24.066Z,24.57
2019-05-23T11:07:24.077Z,24.57
2019-05-23T11:09:17.017Z,24.55
2019-05-23T11:10:17.023Z,24.62
2019-05-23T11:12:10.444Z,24.77
2019-05-23T11:13:10.456Z,24.68
2019-05-23T11:15:03.395Z,24.00
2019-05-23T11:16:03.400Z,23.93
2019-05-23T11:17:56.334Z,23.72
2019-05-23T11:18:56.344Z,23.73
2019-05-23T11:20:49.270Z,23.90
2019-05-23T11:21:49.286Z,24.08
2019-05-23T11:23:42.220Z,24.21
2019-05-23T11:24:42.236Z,24.34
2019-05-23T11:26:35.166Z,24.37
2019-05-23T11:27:35.175Z,24.18
2019-05-23T11:29:28.105Z,24.02
2019-05-23T11:30:28.123Z,24.05
2019-05-23T11:32:21.059Z,23.98
2019-05-23T11:33:21.063Z,24.10
2019-05-23T11:35:13.990Z,24.12
2019-05-23T11:36:14.011Z,24.06
2019-05-23T11:38:06.962Z,23.57
2019-05-23T11:39:06.949Z,23.63
2019-05-23T11:41:00.368Z,23.63
2019-05-23T11:42:00.388Z,23.79
2019-05-23T11:43:53.321Z,23.61
2019-05-23T11:44:53.336Z,23.55
2019-05-23T11:46:46.763Z,23.22
2019-05-23T11:47:46.777Z,23.22
2019-05-23T11:49:40.076Z,23.23
2019-05-23T11:50:39.713Z,23.25
2019-05-23T11:52:32.644Z,23.28
2019-05-23T11:53:32.658Z,23.43
2019-05-23T11:55:25.580Z,23.57
2019-05-23T11:56:25.598Z,23.72
2019-05-23T11:58:18.534Z,23.79
2019-05-23T11:59:18.543Z,23.73
2019-05-23T12:01:19.851Z,23.60
2019-05-23T12:02:11.493Z,23.55
2019-05-23T12:04:04.416Z,23.57
2019-05-23T12:05:04.446Z,23.51
2019-05-23T12:06:57.361Z,23.54
2019-05-23T12:07:57.372Z,23.66
2019-05-23T12:09:50.298Z,23.87
2019-05-23T12:10:50.314Z,23.87
2019-05-23T12:12:43.278Z,24.12
2019-05-23T12:13:43.279Z,24.08
2019-05-23T12:15:36.203Z,24.13
2019-05-23T12:16:36.221Z,24.16
2019-05-23T12:18:29.156Z,24.45
2019-05-23T12:19:29.216Z,24.55
2019-05-23T12:21:22.102Z,24.55
2019-05-23T12:22:22.116Z,24.55
2019-05-23T12:24:15.052Z,24.43
2019-05-23T12:25:23.340Z,24.21
2019-05-23T12:27:08.093Z,23.94
2019-05-23T12:28:08.052Z,23.78
2019-05-23T12:30:00.929Z,23.76
2019-05-23T12:31:00.948Z,23.84
2019-05-23T12:32:53.893Z,24.16
2019-05-23T12:33:53.898Z,24.27
2019-05-23T12:35:46.818Z,24.50
2019-05-23T12:36:46.840Z,24.64
2019-05-23T12:38:40.302Z,24.73
2019-05-23T12:39:40.294Z,24.77
2019-05-23T12:41:33.227Z,24.81
2019-05-23T12:42:33.246Z,24.90
2019-05-23T12:44:26.665Z,24.73
2019-05-23T12:45:26.683Z,24.77
2019-05-23T12:47:19.614Z,24.91
2019-05-23T12:48:19.629Z,24.90
2019-05-23T12:50:12.616Z,25.13
2019-05-23T12:51:12.584Z,25.10
2019-05-23T12:53:05.504Z,25.33
2019-05-23T12:54:05.532Z,25.33
2019-05-23T12:55:58.452Z,25.30
2019-05-23T12:56:58.463Z,25.28
2019-05-23T12:58:51.396Z,25.09
2019-05-23T12:59:51.413Z,25.03
2019-05-23T13:01:44.371Z,24.84
2019-05-23T13:02:44.382Z,24.90
2019-05-23T13:04:37.314Z,25.03
2019-05-23T13:05:37.326Z,25.08
2019-05-23T13:07:36.116Z,25.21
2019-05-23T13:08:30.771Z,25.27
2019-05-23T13:10:25.047Z,25.39
2019-05-23T13:11:23.720Z,25.62
2019-05-23T13:13:16.647Z,25.80
2019-05-23T13:14:16.665Z,25.92
2019-05-23T13:16:09.594Z,26.07
2019-05-23T13:17:09.613Z,26.07
2019-05-23T13:19:02.561Z,26.23
2019-05-23T13:20:02.569Z,26.32
2019-05-23T13:21:55.495Z,26.37
2019-05-23T13:22:55.525Z,26.45
2019-05-23T13:24:52.719Z,26.43
2019-05-23T13:25:48.471Z,26.44
2019-05-23T13:27:41.399Z,26.51
2019-05-23T13:28:41.414Z,26.57
2019-05-23T13:30:34.390Z,26.69
2019-05-23T13:31:34.367Z,26.66
2019-05-23T13:33:27.317Z,26.51
2019-05-23T13:34:27.345Z,26.29
2019-05-23T13:36:20.251Z,26.20
2019-05-23T13:37:20.273Z,26.28
2019-05-23T13:39:13.204Z,26.30
2019-05-23T13:40:13.218Z,26.35
2019-05-23T13:42:06.154Z,26.43
2019-05-23T13:43:08.598Z,26.39
2019-05-23T13:44:59.108Z,26.57
2019-05-23T13:45:59.129Z,26.73
2019-05-23T13:47:52.077Z,26.89
2019-05-23T13:48:52.143Z,26.76
2019-05-23T13:50:45.014Z,26.72
2019-05-23T13:51:45.036Z,26.66
2019-05-23T13:53:38.460Z,26.63
2019-05-23T13:54:38.480Z,26.58
2019-05-23T13:56:31.407Z,26.52
2019-05-23T13:57:31.428Z,26.60
2019-05-23T13:59:24.393Z,26.60
2019-05-23T14:00:24.389Z,26.66
2019-05-23T14:02:17.310Z,26.65
2019-05-23T14:03:17.334Z,26.80
2019-05-23T14:05:10.296Z,26.77
2019-05-23T14:06:10.286Z,26.91
2019-05-23T14:08:12.126Z,26.92
2019-05-23T14:09:03.727Z,26.94
2019-05-23T14:10:56.661Z,26.92
2019-05-23T14:12:19.947Z,26.94
2019-05-23T14:13:59.119Z,27.04
2019-05-23T14:14:49.627Z,26.95
2019-05-23T14:16:42.559Z,26.91
2019-05-23T14:17:42.578Z,26.94
2019-05-23T14:19:35.515Z,26.95
2019-05-23T14:20:35.532Z,27.07
2019-05-23T14:22:28.465Z,27.17
2019-05-23T14:23:28.484Z,27.07
2019-05-23T14:25:21.425Z,27.18
2019-05-23T14:26:21.439Z,27.07
2019-05-23T14:28:14.369Z,26.89
2019-05-23T14:29:14.388Z,26.82
2019-05-23T14:31:07.819Z,26.62
2019-05-23T14:32:07.836Z,26.50
2019-05-23T14:34:00.784Z,26.26
2019-05-23T14:35:00.789Z,26.26
2019-05-23T14:36:54.229Z,26.39
2019-05-23T14:37:54.248Z,26.44
2019-05-23T14:39:47.185Z,26.39
2019-05-23T14:40:47.204Z,26.40
2019-05-23T14:42:40.133Z,26.47
2019-05-23T14:43:40.159Z,26.47
2019-05-23T14:45:33.100Z,26.62
2019-05-23T14:46:33.110Z,26.65
2019-05-23T14:48:26.045Z,26.88
2019-05-23T14:49:26.066Z,26.94
2019-05-23T14:51:19.000Z,27.00
2019-05-23T14:52:19.020Z,27.04
2019-05-23T14:54:12.106Z,27.06
2019-05-23T14:55:12.122Z,27.00
2019-05-23T14:57:05.054Z,27.17
2019-05-23T14:58:05.077Z,27.22
2019-05-23T14:59:58.027Z,27.29
2019-05-23T15:00:58.025Z,27.31
2019-05-23T15:02:50.954Z,27.22
2019-05-23T15:03:50.978Z,27.22
2019-05-23T15:05:43.916Z,26.99
2019-05-23T15:06:43.926Z,27.02
2019-05-23T15:08:50.262Z,26.87
2019-05-23T15:09:36.883Z,26.88
2019-05-23T15:11:31.317Z,26.65
2019-05-23T15:12:31.334Z,26.44
2019-05-23T15:14:24.260Z,26.36
2019-05-23T15:15:24.301Z,26.26
2019-05-23T15:17:17.223Z,26.40
2019-05-23T15:18:17.231Z,26.33
2019-05-23T15:20:10.168Z,26.45
2019-05-23T15:21:10.184Z,26.35
2019-05-23T15:23:03.110Z,26.10
2019-05-23T15:24:03.159Z,26.02
2019-05-23T15:25:56.064Z,26.01
2019-05-23T15:26:56.077Z,26.10
2019-05-23T15:28:49.525Z,26.13
2019-05-23T15:29:49.569Z,26.10
2019-05-23T15:31:42.448Z,26.32
2019-05-23T15:32:42.472Z,26.23
2019-05-23T15:34:35.616Z,26.36
2019-05-23T15:35:35.418Z,26.35
2019-05-23T15:37:28.355Z,26.43
2019-05-23T15:38:28.370Z,26.43
2019-05-23T15:40:21.809Z,26.62
2019-05-23T15:41:21.828Z,26.63
2019-05-23T15:43:15.267Z,26.73
2019-05-23T15:44:25.930Z,26.80
2019-05-23T15:46:08.306Z,26.70
2019-05-23T15:47:08.242Z,26.88
2019-05-23T15:49:01.642Z,26.92
2019-05-23T15:50:06.098Z,26.88
2019-05-23T15:51:54.656Z,26.77
2019-05-23T15:52:54.627Z,26.65
2019-05-23T15:54:47.845Z,26.37
2019-05-23T15:55:47.563Z,26.30
2019-05-23T15:57:40.495Z,26.32
2019-05-23T15:58:40.515Z,26.09
2019-05-23T16:00:33.581Z,26.12
2019-05-23T16:01:33.613Z,26.09
2019-05-23T16:03:27.034Z,26.13
2019-05-23T16:04:27.077Z,26.12
2019-05-23T16:06:19.988Z,26.10
2019-05-23T16:07:20.003Z,25.98
2019-05-23T16:09:27.596Z,26.20
2019-05-23T16:10:12.957Z,26.28
2019-05-23T16:12:06.384Z,26.43
2019-05-23T16:13:06.399Z,26.55
2019-05-23T16:14:59.815Z,26.54
2019-05-23T16:15:59.841Z,26.65
2019-05-23T16:17:52.775Z,26.66
2019-05-23T16:18:52.873Z,26.66
2019-05-23T16:20:46.235Z,26.60
2019-05-23T16:21:46.240Z,26.54
2019-05-23T16:23:40.164Z,26.57
2019-05-23T16:24:40.181Z,26.39
2019-05-23T16:26:33.116Z,26.44
2019-05-23T16:27:33.174Z,26.45
2019-05-23T16:29:26.052Z,26.36
2019-05-23T16:30:26.071Z,26.29
2019-05-23T16:32:19.499Z,26.35
2019-05-23T16:33:19.513Z,26.33
2019-05-23T16:35:12.451Z,26.26
2019-05-23T16:36:12.620Z,26.28
2019-05-23T16:38:05.919Z,26.09
2019-05-23T16:39:05.935Z,26.18
2019-05-23T16:40:58.852Z,26.23
2019-05-23T16:41:58.870Z,26.29
2019-05-23T16:43:51.879Z,26.35
2019-05-23T16:44:51.817Z,26.37
2019-05-23T16:46:44.753Z,26.44
2019-05-23T16:47:44.777Z,26.40
2019-05-23T16:49:38.685Z,26.33
2019-05-23T16:50:38.707Z,26.25
2019-05-23T16:52:31.664Z,26.28
2019-05-23T16:53:35.558Z,26.33
2019-05-23T16:55:24.659Z,25.99
2019-05-23T16:56:24.628Z,25.95
2019-05-23T16:58:17.576Z,26.05
2019-05-23T16:59:17.571Z,25.95
2019-05-23T17:01:23.564Z,25.94
2019-05-23T17:02:10.514Z,25.90
2019-05-23T17:04:03.941Z,25.79
2019-05-23T17:05:09.794Z,25.72
2019-05-23T17:06:56.887Z,25.67
2019-05-23T17:07:56.904Z,25.58
2019-05-23T17:10:06.757Z,25.52
2019-05-23T17:10:49.853Z,25.46
2019-05-23T17:12:42.784Z,25.52
2019-05-23T17:13:42.804Z,25.39
2019-05-23T17:15:36.232Z,25.38
2019-05-23T17:16:36.246Z,25.39
2019-05-23T17:18:29.172Z,25.30
2019-05-23T17:19:29.203Z,25.28
2019-05-23T17:21:22.606Z,25.28
2019-05-23T17:22:22.625Z,25.21
2019-05-23T17:24:15.558Z,25.14
2019-05-23T17:25:15.634Z,25.10
2019-05-23T17:27:08.991Z,25.15
2019-05-23T17:28:09.075Z,25.03
2019-05-23T17:30:02.429Z,24.93
2019-05-23T17:31:02.452Z,24.99
2019-05-23T17:32:55.872Z,24.91
2019-05-23T17:33:55.893Z,24.91
2019-05-23T17:35:49.307Z,24.91
2019-05-23T17:36:49.333Z,24.91
2019-05-23T17:38:42.264Z,24.95
2019-05-23T17:39:42.272Z,24.87
2019-05-23T17:41:35.707Z,24.95
2019-05-23T17:42:36.360Z,24.80
2019-05-23T17:44:29.147Z,24.90
2019-05-23T17:45:29.166Z,24.88
2019-05-23T17:47:23.371Z,24.81
2019-05-23T17:48:23.466Z,24.77
2019-05-23T17:50:16.311Z,24.76
2019-05-23T17:51:16.327Z,24.80
2019-05-23T17:53:09.265Z,24.90
2019-05-23T17:54:09.277Z,24.85
2019-05-23T17:56:02.703Z,24.90
2019-05-23T17:57:02.726Z,24.91
2019-05-23T17:58:56.143Z,25.05
2019-05-23T17:59:56.161Z,25.06
2019-05-23T18:01:49.579Z,25.03
2019-05-23T18:02:49.621Z,25.05
2019-05-23T18:04:42.533Z,25.21
2019-05-23T18:05:42.543Z,25.27
2019-05-23T18:07:35.995Z,25.52
2019-05-23T18:08:35.987Z,25.60
2019-05-23T18:10:44.123Z,25.75
2019-05-23T18:11:29.428Z,25.88
2019-05-23T18:13:22.852Z,26.02
2019-05-23T18:14:22.865Z,26.09
2019-05-23T18:16:15.792Z,26.23
2019-05-23T18:17:15.806Z,26.28
2019-05-23T18:19:09.240Z,26.43
2019-05-23T18:20:09.253Z,26.40
2019-05-23T18:22:02.719Z,26.40
2019-05-23T18:23:02.712Z,26.25
2019-05-23T18:24:59.660Z,26.28
2019-05-23T18:25:56.151Z,26.26
2019-05-23T18:27:49.084Z,26.12
2019-05-23T18:28:49.098Z,26.12
2019-05-23T18:31:33.603Z,25.73
2019-05-23T18:32:33.628Z,25.64
2019-05-23T18:34:27.047Z,25.52
2019-05-23T18:35:27.061Z,25.38
2019-05-23T18:37:20.505Z,25.28